sensor_id;sensor_type;location;lat;lon;timestamp;pressure;altitude;pressure_sealevel;temperature
71630;BMP280;59479;51.902;8.212;2023-03-19T00:00:19;100616.25;;;12.62
71630;BMP280;59479;51.902;8.212;2023-03-19T00:02:44;100623.03;;;12.56
71630;BMP280;59479;51.902;8.212;2023-03-19T00:05:15;100617.19;;;12.53
71630;BMP280;59479;51.902;8.212;2023-03-19T00:07:47;100623.94;;;12.48
71630;BMP280;59479;51.902;8.212;2023-03-19T00:10:15;100622.28;;;12.47
71630;BMP280;59479;51.902;8.212;2023-03-19T00:12:40;100620.59;;;12.49
71630;BMP280;59479;51.902;8.212;2023-03-19T00:15:23;100616.41;;;12.46
71630;BMP280;59479;51.902;8.212;2023-03-19T00:17:49;100620.63;;;12.40
71630;BMP280;59479;51.902;8.212;2023-03-19T00:20:14;100622.41;;;12.30
71630;BMP280;59479;51.902;8.212;2023-03-19T00:22:40;100621.53;;;12.34
71630;BMP280;59479;51.902;8.212;2023-03-19T00:25:09;100622.44;;;12.26
71630;BMP280;59479;51.902;8.212;2023-03-19T00:27:40;100624.13;;;12.27
71630;BMP280;59479;51.902;8.212;2023-03-19T00:30:06;100630.81;;;12.25
71630;BMP280;59479;51.902;8.212;2023-03-19T00:32:35;100639.19;;;12.33
71630;BMP280;59479;51.902;8.212;2023-03-19T00:35:04;100632.44;;;12.35
71630;BMP280;59479;51.902;8.212;2023-03-19T00:37:33;100638.38;;;12.29
71630;BMP280;59479;51.902;8.212;2023-03-19T00:39:59;100624.94;;;12.27
71630;BMP280;59479;51.902;8.212;2023-03-19T00:42:25;100638.44;;;12.20
71630;BMP280;59479;51.902;8.212;2023-03-19T00:44:51;100635.91;;;12.20
71630;BMP280;59479;51.902;8.212;2023-03-19T00:47:17;100641.78;;;12.24
71630;BMP280;59479;51.902;8.212;2023-03-19T00:49:42;100631.69;;;12.22
71630;BMP280;59479;51.902;8.212;2023-03-19T00:52:08;100623.25;;;12.26
71630;BMP280;59479;51.902;8.212;2023-03-19T00:54:33;100626.59;;;12.30
71630;BMP280;59479;51.902;8.212;2023-03-19T00:56:58;100629.09;;;12.31
71630;BMP280;59479;51.902;8.212;2023-03-19T00:59:25;100627.47;;;12.29
71630;BMP280;59479;51.902;8.212;2023-03-19T01:01:50;100629.16;;;12.27
71630;BMP280;59479;51.902;8.212;2023-03-19T01:04:16;100625.78;;;12.25
71630;BMP280;59479;51.902;8.212;2023-03-19T01:06:43;100626.63;;;12.28
71630;BMP280;59479;51.902;8.212;2023-03-19T01:09:08;100625.75;;;12.29
71630;BMP280;59479;51.902;8.212;2023-03-19T01:11:34;100627.47;;;12.27
71630;BMP280;59479;51.902;8.212;2023-03-19T01:14:00;100622.44;;;12.24
71630;BMP280;59479;51.902;8.212;2023-03-19T01:16:26;100632.59;;;12.14
71630;BMP280;59479;51.902;8.212;2023-03-19T01:18:52;100639.34;;;12.12
71630;BMP280;59479;51.902;8.212;2023-03-19T01:21:18;100633.41;;;12.22
71630;BMP280;59479;51.902;8.212;2023-03-19T01:23:43;100624.97;;;12.21
71630;BMP280;59479;51.902;8.212;2023-03-19T01:26:09;100638.44;;;12.17
71630;BMP280;59479;51.902;8.212;2023-03-19T01:28:34;100642.66;;;12.18
71630;BMP280;59479;51.902;8.212;2023-03-19T01:31:01;100635.94;;;12.13
71630;BMP280;59479;51.902;8.212;2023-03-19T01:33:29;100645.22;;;12.08
71630;BMP280;59479;51.902;8.212;2023-03-19T01:35:55;100647.75;;;12.07
71630;BMP280;59479;51.902;8.212;2023-03-19T01:38:22;100641.06;;;12.03
71630;BMP280;59479;51.902;8.212;2023-03-19T01:40:48;100639.41;;;12.00
71630;BMP280;59479;51.902;8.212;2023-03-19T01:43:36;100644.41;;;12.03
71630;BMP280;59479;51.902;8.212;2023-03-19T01:46:06;100636.91;;;11.91
71630;BMP280;59479;51.902;8.212;2023-03-19T01:48:40;100636.94;;;11.88
71630;BMP280;59479;51.902;8.212;2023-03-19T01:51:09;100636.06;;;11.95
71630;BMP280;59479;51.902;8.212;2023-03-19T01:53:37;100632.75;;;11.87
71630;BMP280;59479;51.902;8.212;2023-03-19T01:56:11;100640.28;;;11.92
71630;BMP280;59479;51.902;8.212;2023-03-19T01:58:39;100633.59;;;11.88
71630;BMP280;59479;51.902;8.212;2023-03-19T02:01:05;100632.69;;;11.93
71630;BMP280;59479;51.902;8.212;2023-03-19T02:03:32;100633.53;;;11.98
71630;BMP280;59479;51.902;8.212;2023-03-19T02:05:58;100634.38;;;12.02
71630;BMP280;59479;51.902;8.212;2023-03-19T02:08:24;100641.94;;;11.94
71630;BMP280;59479;51.902;8.212;2023-03-19T02:10:51;100627.66;;;11.98
71630;BMP280;59479;51.902;8.212;2023-03-19T02:13:20;100632.69;;;12.02
71630;BMP280;59479;51.902;8.212;2023-03-19T02:15:47;100638.56;;;11.98
71630;BMP280;59479;51.902;8.212;2023-03-19T02:18:13;100636.09;;;11.86
71630;BMP280;59479;51.902;8.212;2023-03-19T02:21:02;100642.00;;;11.81
71630;BMP280;59479;51.902;8.212;2023-03-19T02:23:36;100637.84;;;11.77
71630;BMP280;59479;51.902;8.212;2023-03-19T02:26:10;100640.34;;;11.80
71630;BMP280;59479;51.902;8.212;2023-03-19T02:28:39;100643.72;;;11.76
71630;BMP280;59479;51.902;8.212;2023-03-19T02:31:07;100639.56;;;11.71
71630;BMP280;59479;51.902;8.212;2023-03-19T02:33:33;100637.00;;;11.75
71630;BMP280;59479;51.902;8.212;2023-03-19T02:36:01;100631.94;;;11.76
71630;BMP280;59479;51.902;8.212;2023-03-19T02:38:29;100634.47;;;11.76
71630;BMP280;59479;51.902;8.212;2023-03-19T02:41:06;100631.13;;;11.72
71630;BMP280;59479;51.902;8.212;2023-03-19T02:43:34;100634.53;;;11.71
71630;BMP280;59479;51.902;8.212;2023-03-19T02:46:02;100626.97;;;11.69
71630;BMP280;59479;51.902;8.212;2023-03-19T02:48:28;100617.78;;;11.55
71630;BMP280;59479;51.902;8.212;2023-03-19T02:50:54;100627.03;;;11.53
71630;BMP280;59479;51.902;8.212;2023-03-19T02:53:19;100625.34;;;11.59
71630;BMP280;59479;51.902;8.212;2023-03-19T02:55:45;100622.81;;;11.64
71630;BMP280;59479;51.902;8.212;2023-03-19T02:58:11;100626.09;;;11.72
71630;BMP280;59479;51.902;8.212;2023-03-19T03:00:37;100626.09;;;11.74
71630;BMP280;59479;51.902;8.212;2023-03-19T03:03:03;100644.59;;;11.62
71630;BMP280;59479;51.902;8.212;2023-03-19T03:05:31;100633.69;;;11.67
71630;BMP280;59479;51.902;8.212;2023-03-19T03:07:56;100621.94;;;11.65
71630;BMP280;59479;51.902;8.212;2023-03-19T03:10:22;100632.88;;;11.61
71630;BMP280;59479;51.902;8.212;2023-03-19T03:12:48;100638.75;;;11.58
71630;BMP280;59479;51.902;8.212;2023-03-19T03:15:13;100641.28;;;11.57
71630;BMP280;59479;51.902;8.212;2023-03-19T03:17:39;100643.78;;;11.60
71630;BMP280;59479;51.902;8.212;2023-03-19T03:20:05;100631.19;;;11.57
71630;BMP280;59479;51.902;8.212;2023-03-19T03:22:31;100635.44;;;11.50
71630;BMP280;59479;51.902;8.212;2023-03-19T03:24:57;100636.28;;;11.51
71630;BMP280;59479;51.902;8.212;2023-03-19T03:27:23;100632.06;;;11.50
71630;BMP280;59479;51.902;8.212;2023-03-19T03:29:48;100637.94;;;11.55
71630;BMP280;59479;51.902;8.212;2023-03-19T03:32:15;100641.25;;;11.63
71630;BMP280;59479;51.902;8.212;2023-03-19T03:34:40;100646.31;;;11.60
71630;BMP280;59479;51.902;8.212;2023-03-19T03:37:06;100643.00;;;11.47
71630;BMP280;59479;51.902;8.212;2023-03-19T03:39:32;100638.78;;;11.43
71630;BMP280;59479;51.902;8.212;2023-03-19T03:41:57;100644.66;;;11.44
71630;BMP280;59479;51.902;8.212;2023-03-19T03:44:23;100648.88;;;11.34
71630;BMP280;59479;51.902;8.212;2023-03-19T03:46:51;100653.09;;;11.31
71630;BMP280;59479;51.902;8.212;2023-03-19T03:49:19;100650.56;;;11.32
71630;BMP280;59479;51.902;8.212;2023-03-19T03:51:45;100646.34;;;11.33
71630;BMP280;59479;51.902;8.212;2023-03-19T03:54:10;100652.25;;;11.26
71630;BMP280;59479;51.902;8.212;2023-03-19T03:56:36;100643.06;;;11.22
71630;BMP280;59479;51.902;8.212;2023-03-19T03:59:02;100646.41;;;11.18
71630;BMP280;59479;51.902;8.212;2023-03-19T04:01:28;100642.22;;;11.13
71630;BMP280;59479;51.902;8.212;2023-03-19T04:03:54;100641.41;;;11.12
71630;BMP280;59479;51.902;8.212;2023-03-19T04:06:21;100638.03;;;11.16
71630;BMP280;59479;51.902;8.212;2023-03-19T04:08:47;100641.41;;;11.15
71630;BMP280;59479;51.902;8.212;2023-03-19T04:11:13;100638.88;;;11.15
71630;BMP280;59479;51.902;8.212;2023-03-19T04:13:38;100639.72;;;11.11
71630;BMP280;59479;51.902;8.212;2023-03-19T04:16:08;100631.34;;;11.08
71630;BMP280;59479;51.902;8.212;2023-03-19T04:18:35;100633.03;;;11.09
71630;BMP280;59479;51.902;8.212;2023-03-19T04:21:01;100626.31;;;11.08
71630;BMP280;59479;51.902;8.212;2023-03-19T04:23:28;100629.69;;;11.05
71630;BMP280;59479;51.902;8.212;2023-03-19T04:26:00;100629.69;;;11.01
71630;BMP280;59479;51.902;8.212;2023-03-19T04:28:26;100636.38;;;10.94
71630;BMP280;59479;51.902;8.212;2023-03-19T04:31:02;100634.69;;;10.93
71630;BMP280;59479;51.902;8.212;2023-03-19T04:33:29;100631.34;;;10.91
71630;BMP280;59479;51.902;8.212;2023-03-19T04:35:55;100644.78;;;10.92
71630;BMP280;59479;51.902;8.212;2023-03-19T04:38:22;100643.09;;;10.88
71630;BMP280;59479;51.902;8.212;2023-03-19T04:40:50;100627.19;;;10.86
71630;BMP280;59479;51.902;8.212;2023-03-19T04:43:22;100634.72;;;10.86
71630;BMP280;59479;51.902;8.212;2023-03-19T04:45:50;100639.75;;;10.88
71630;BMP280;59479;51.902;8.212;2023-03-19T04:48:16;100635.56;;;10.85
71630;BMP280;59479;51.902;8.212;2023-03-19T04:50:43;100644.78;;;10.82
71630;BMP280;59479;51.902;8.212;2023-03-19T04:53:10;100641.44;;;10.80
71630;BMP280;59479;51.902;8.212;2023-03-19T04:55:35;100649.00;;;10.75
71630;BMP280;59479;51.902;8.212;2023-03-19T04:58:01;100643.97;;;10.74
71630;BMP280;59479;51.902;8.212;2023-03-19T05:00:26;100643.94;;;10.69
71630;BMP280;59479;51.902;8.212;2023-03-19T05:02:54;100644.78;;;10.67
71630;BMP280;59479;51.902;8.212;2023-03-19T05:05:20;100642.28;;;10.70
71630;BMP280;59479;51.902;8.212;2023-03-19T05:07:46;100640.59;;;10.66
71630;BMP280;59479;51.902;8.212;2023-03-19T05:10:11;100643.13;;;10.63
71630;BMP280;59479;51.902;8.212;2023-03-19T05:12:37;100649.00;;;10.60
71630;BMP280;59479;51.902;8.212;2023-03-19T05:15:02;100653.19;;;10.55
71630;BMP280;59479;51.902;8.212;2023-03-19T05:17:30;100652.34;;;10.52
71630;BMP280;59479;51.902;8.212;2023-03-19T05:19:56;100648.16;;;10.55
71630;BMP280;59479;51.902;8.212;2023-03-19T05:22:22;100663.22;;;10.51
71630;BMP280;59479;51.902;8.212;2023-03-19T05:24:48;100652.34;;;10.50
71630;BMP280;59479;51.902;8.212;2023-03-19T05:27:17;100664.06;;;10.46
71630;BMP280;59479;51.902;8.212;2023-03-19T05:29:51;100655.66;;;10.48
71630;BMP280;59479;51.902;8.212;2023-03-19T05:32:28;100667.41;;;10.48
71630;BMP280;59479;51.902;8.212;2023-03-19T05:34:59;100667.41;;;10.48
71630;BMP280;59479;51.902;8.212;2023-03-19T05:37:34;100665.72;;;10.49
71630;BMP280;59479;51.902;8.212;2023-03-19T05:40:08;100686.69;;;10.46
71630;BMP280;59479;51.902;8.212;2023-03-19T05:42:59;100687.50;;;10.48
71630;BMP280;59479;51.902;8.212;2023-03-19T05:45:31;100679.94;;;10.43
71630;BMP280;59479;51.902;8.212;2023-03-19T05:47:56;100691.69;;;10.44
71630;BMP280;59479;51.902;8.212;2023-03-19T05:50:30;100683.31;;;10.41
71630;BMP280;59479;51.902;8.212;2023-03-19T05:53:15;100686.66;;;10.41
71630;BMP280;59479;51.902;8.212;2023-03-19T05:55:41;100691.69;;;10.44
71630;BMP280;59479;51.902;8.212;2023-03-19T05:58:17;100695.88;;;10.49
71630;BMP280;59479;51.902;8.212;2023-03-19T06:00:45;100691.69;;;10.48
71630;BMP280;59479;51.902;8.212;2023-03-19T06:03:16;100690.03;;;10.52
71630;BMP280;59479;51.902;8.212;2023-03-19T06:05:44;100690.84;;;10.51
71630;BMP280;59479;51.902;8.212;2023-03-19T06:08:21;100690.84;;;10.45
71630;BMP280;59479;51.902;8.212;2023-03-19T06:10:47;100696.72;;;10.50
71630;BMP280;59479;51.902;8.212;2023-03-19T06:13:16;100702.59;;;10.49
71630;BMP280;59479;51.902;8.212;2023-03-19T06:15:47;100700.06;;;10.55
71630;BMP280;59479;51.902;8.212;2023-03-19T06:18:15;100694.22;;;10.54
71630;BMP280;59479;51.902;8.212;2023-03-19T06:20:40;100700.09;;;10.61
71630;BMP280;59479;51.902;8.212;2023-03-19T06:23:06;100701.75;;;10.62
71630;BMP280;59479;51.902;8.212;2023-03-19T06:25:31;100695.91;;;10.66
71630;BMP280;59479;51.902;8.212;2023-03-19T06:27:57;100695.06;;;10.70
71630;BMP280;59479;51.902;8.212;2023-03-19T06:30:22;100693.38;;;10.72
71630;BMP280;59479;51.902;8.212;2023-03-19T06:32:50;100700.09;;;10.70
71630;BMP280;59479;51.902;8.212;2023-03-19T06:35:18;100700.06;;;10.68
71630;BMP280;59479;51.902;8.212;2023-03-19T06:37:43;100698.41;;;10.72
71630;BMP280;59479;51.902;8.212;2023-03-19T06:40:09;100711.84;;;10.75
71630;BMP280;59479;51.902;8.212;2023-03-19T06:42:35;100710.13;;;10.82
71630;BMP280;59479;51.902;8.212;2023-03-19T06:45:00;100709.31;;;10.81
71630;BMP280;59479;51.902;8.212;2023-03-19T06:47:26;100716.03;;;10.84
71630;BMP280;59479;51.902;8.212;2023-03-19T06:49:52;100713.50;;;10.89
71630;BMP280;59479;51.902;8.212;2023-03-19T06:52:17;100726.91;;;10.94
71630;BMP280;59479;51.902;8.212;2023-03-19T06:54:43;100721.88;;;10.97
71630;BMP280;59479;51.902;8.212;2023-03-19T06:57:08;100721.88;;;10.97
71630;BMP280;59479;51.902;8.212;2023-03-19T06:59:34;100720.22;;;11.02
71630;BMP280;59479;51.902;8.212;2023-03-19T07:01:59;100721.88;;;11.06
71630;BMP280;59479;51.902;8.212;2023-03-19T07:04:25;100717.69;;;11.10
71630;BMP280;59479;51.902;8.212;2023-03-19T07:06:50;100715.16;;;11.11
71630;BMP280;59479;51.902;8.212;2023-03-19T07:09:18;100726.06;;;11.15
71630;BMP280;59479;51.902;8.212;2023-03-19T07:11:43;100730.28;;;11.19
71630;BMP280;59479;51.902;8.212;2023-03-19T07:14:09;100733.63;;;11.24
71630;BMP280;59479;51.902;8.212;2023-03-19T07:16:35;100740.31;;;11.29
71630;BMP280;59479;51.902;8.212;2023-03-19T07:19:01;100741.97;;;11.33
71630;BMP280;59479;51.902;8.212;2023-03-19T07:21:26;100743.66;;;11.34
71630;BMP280;59479;51.902;8.212;2023-03-19T07:23:51;100747.84;;;11.38
71630;BMP280;59479;51.902;8.212;2023-03-19T07:26:17;100746.16;;;11.44
71630;BMP280;59479;51.902;8.212;2023-03-19T07:28:43;100755.44;;;11.45
71630;BMP280;59479;51.902;8.212;2023-03-19T07:31:08;100752.91;;;11.47
71630;BMP280;59479;51.902;8.212;2023-03-19T07:33:33;100761.28;;;11.46
71630;BMP280;59479;51.902;8.212;2023-03-19T07:35:59;100759.59;;;11.52
71630;BMP280;59479;51.902;8.212;2023-03-19T07:38:24;100754.56;;;11.55
71630;BMP280;59479;51.902;8.212;2023-03-19T07:40:50;100763.78;;;11.59
71630;BMP280;59479;51.902;8.212;2023-03-19T07:43:18;100758.75;;;11.64
71630;BMP280;59479;51.902;8.212;2023-03-19T07:45:43;100765.44;;;11.69
71630;BMP280;59479;51.902;8.212;2023-03-19T07:48:09;100759.53;;;11.74
71630;BMP280;59479;51.902;8.212;2023-03-19T07:50:35;100767.09;;;11.74
71630;BMP280;59479;51.902;8.212;2023-03-19T07:53:01;100764.56;;;11.80
71630;BMP280;59479;51.902;8.212;2023-03-19T07:55:28;100765.41;;;11.82
71630;BMP280;59479;51.902;8.212;2023-03-19T07:57:56;100768.75;;;11.81
71630;BMP280;59479;51.902;8.212;2023-03-19T08:00:22;100767.09;;;11.83
71630;BMP280;59479;51.902;8.212;2023-03-19T08:02:48;100771.25;;;11.87
71630;BMP280;59479;51.902;8.212;2023-03-19T08:05:15;100776.25;;;11.96
71630;BMP280;59479;51.902;8.212;2023-03-19T08:07:41;100783.00;;;11.96
71630;BMP280;59479;51.902;8.212;2023-03-19T08:10:07;100772.09;;;11.95
71630;BMP280;59479;51.902;8.212;2023-03-19T08:12:33;100778.78;;;11.98
71630;BMP280;59479;51.902;8.212;2023-03-19T08:15:04;100778.72;;;12.08
71630;BMP280;59479;51.902;8.212;2023-03-19T08:17:30;100783.78;;;12.08
71630;BMP280;59479;51.902;8.212;2023-03-19T08:19:58;100782.06;;;12.13
71630;BMP280;59479;51.902;8.212;2023-03-19T08:22:26;100782.06;;;12.22
71630;BMP280;59479;51.902;8.212;2023-03-19T08:24:51;100785.34;;;12.30
71630;BMP280;59479;51.902;8.212;2023-03-19T08:27:16;100781.13;;;12.38
71630;BMP280;59479;51.902;8.212;2023-03-19T08:29:42;100781.19;;;12.32
71630;BMP280;59479;51.902;8.212;2023-03-19T08:32:07;100781.19;;;12.30
71630;BMP280;59479;51.902;8.212;2023-03-19T08:34:33;100783.66;;;12.38
71630;BMP280;59479;51.902;8.212;2023-03-19T08:36:58;100776.91;;;12.40
71630;BMP280;59479;51.902;8.212;2023-03-19T08:39:24;100784.47;;;12.44
71630;BMP280;59479;51.902;8.212;2023-03-19T08:41:49;100786.94;;;12.52
71630;BMP280;59479;51.902;8.212;2023-03-19T08:44:15;100783.59;;;12.50
71630;BMP280;59479;51.902;8.212;2023-03-19T08:46:40;100786.91;;;12.59
71630;BMP280;59479;51.902;8.212;2023-03-19T08:49:25;100786.91;;;12.57
71630;BMP280;59479;51.902;8.212;2023-03-19T08:52:04;100780.16;;;12.58
71630;BMP280;59479;51.902;8.212;2023-03-19T08:54:30;100783.50;;;12.66
71630;BMP280;59479;51.902;8.212;2023-03-19T08:57:02;100785.13;;;12.71
71630;BMP280;59479;51.902;8.212;2023-03-19T08:59:54;100799.41;;;12.78
71630;BMP280;59479;51.902;8.212;2023-03-19T09:02:29;100794.38;;;12.77
71630;BMP280;59479;51.902;8.212;2023-03-19T09:04:54;100796.03;;;12.81
71630;BMP280;59479;51.902;8.212;2023-03-19T09:07:26;100797.66;;;12.94
71630;BMP280;59479;51.902;8.212;2023-03-19T09:09:59;100800.13;;;12.98
71630;BMP280;59479;51.902;8.212;2023-03-19T09:12:25;100810.22;;;12.98
71630;BMP280;59479;51.902;8.212;2023-03-19T09:14:53;100817.03;;;12.84
71630;BMP280;59479;51.902;8.212;2023-03-19T09:17:19;100811.91;;;12.96
71630;BMP280;59479;51.902;8.212;2023-03-19T09:19:45;100814.44;;;12.98
71630;BMP280;59479;51.902;8.212;2023-03-19T09:22:10;100813.59;;;12.99
71630;BMP280;59479;51.902;8.212;2023-03-19T09:24:36;100816.81;;;13.17
71630;BMP280;59479;51.902;8.212;2023-03-19T09:27:01;100814.22;;;13.27
71630;BMP280;59479;51.902;8.212;2023-03-19T09:29:27;100826.84;;;13.23
71630;BMP280;59479;51.902;8.212;2023-03-19T09:31:52;100812.53;;;13.26
71630;BMP280;59479;51.902;8.212;2023-03-19T09:34:18;100813.28;;;13.36
71630;BMP280;59479;51.902;8.212;2023-03-19T09:36:43;100814.13;;;13.35
71630;BMP280;59479;51.902;8.212;2023-03-19T09:39:13;100813.28;;;13.40
71630;BMP280;59479;51.902;8.212;2023-03-19T09:42:03;100815.75;;;13.43
71630;BMP280;59479;51.902;8.212;2023-03-19T09:44:39;100814.06;;;13.45
71630;BMP280;59479;51.902;8.212;2023-03-19T09:47:28;100813.22;;;13.44
71630;BMP280;59479;51.902;8.212;2023-03-19T09:50:25;100813.09;;;13.56
71630;BMP280;59479;51.902;8.212;2023-03-19T09:55:51;100813.97;;;13.54
71630;BMP280;59479;51.902;8.212;2023-03-19T09:58:21;100832.47;;;13.54
71630;BMP280;59479;51.902;8.212;2023-03-19T10:01:00;100818.16;;;13.56
71630;BMP280;59479;51.902;8.212;2023-03-19T10:16:54;100824.44;;;14.05
71630;BMP280;59479;51.902;8.212;2023-03-19T10:19:43;100822.59;;;14.19
71630;BMP280;59479;51.902;8.212;2023-03-19T10:22:27;100826.06;;;14.12
71630;BMP280;59479;51.902;8.212;2023-03-19T10:24:55;100830.19;;;14.16
71630;BMP280;59479;51.902;8.212;2023-03-19T10:27:25;100827.56;;;14.25
71630;BMP280;59479;51.902;8.212;2023-03-19T10:29:51;100826.59;;;14.34
71630;BMP280;59479;51.902;8.212;2023-03-19T10:32:18;100829.06;;;14.40
71630;BMP280;59479;51.902;8.212;2023-03-19T10:34:48;100835.06;;;14.32
71630;BMP280;59479;51.902;8.212;2023-03-19T10:37:32;100835.88;;;14.35
71630;BMP280;59479;51.902;8.212;2023-03-19T10:40:12;100828.34;;;14.28
71630;BMP280;59479;51.902;8.212;2023-03-19T10:42:52;100837.50;;;14.39
71630;BMP280;59479;51.902;8.212;2023-03-19T10:45:26;100849.19;;;14.46
71630;BMP280;59479;51.902;8.212;2023-03-19T10:48:01;100844.25;;;14.40
71630;BMP280;59479;51.902;8.212;2023-03-19T10:50:51;100841.72;;;14.40
71630;BMP280;59479;51.902;8.212;2023-03-19T10:59:21;100843.31;;;14.47
71630;BMP280;59479;51.902;8.212;2023-03-19T11:02:06;100836.53;;;14.48
71630;BMP280;59479;51.902;8.212;2023-03-19T11:04:50;100845.00;;;14.48
71630;BMP280;59479;51.902;8.212;2023-03-19T11:07:31;100848.22;;;14.58
71630;BMP280;59479;51.902;8.212;2023-03-19T11:09:57;100851.50;;;14.66
71630;BMP280;59479;51.902;8.212;2023-03-19T11:12:32;100848.91;;;14.70
71630;BMP280;59479;51.902;8.212;2023-03-19T11:14:59;100848.97;;;14.64
71630;BMP280;59479;51.902;8.212;2023-03-19T11:17:44;100835.38;;;14.72
71630;BMP280;59479;51.902;8.212;2023-03-19T11:20:28;100853.06;;;14.75
71630;BMP280;59479;51.902;8.212;2023-03-19T11:22:55;100853.69;;;14.91
71630;BMP280;59479;51.902;8.212;2023-03-19T11:25:46;100848.50;;;15.00
71630;BMP280;59479;51.902;8.212;2023-03-19T11:28:23;100851.09;;;14.95
71630;BMP280;59479;51.902;8.212;2023-03-19T11:36:57;100849.34;;;14.99
71630;BMP280;59479;51.902;8.212;2023-03-19T11:40:08;100845.84;;;15.09
71630;BMP280;59479;51.902;8.212;2023-03-19T11:42:52;100853.31;;;15.17
71630;BMP280;59479;51.902;8.212;2023-03-19T11:48:18;100832.63;;;15.44
71630;BMP280;59479;51.902;8.212;2023-03-19T11:50:57;100832.59;;;15.46
71630;BMP280;59479;51.902;8.212;2023-03-19T11:53:37;100838.50;;;15.46
71630;BMP280;59479;51.902;8.212;2023-03-19T12:01:18;100841.63;;;15.61
71630;BMP280;59479;51.902;8.212;2023-03-19T12:11:56;100847.34;;;15.71
71630;BMP280;59479;51.902;8.212;2023-03-19T12:36:10;100832.94;;;16.21
71630;BMP280;59479;51.902;8.212;2023-03-19T12:38:43;100832.59;;;16.37
71630;BMP280;59479;51.902;8.212;2023-03-19T12:41:23;100833.66;;;16.27
71630;BMP280;59479;51.902;8.212;2023-03-19T12:44:17;100840.78;;;16.06
71630;BMP280;59479;51.902;8.212;2023-03-19T12:47:03;100833.72;;;16.23
71630;BMP280;59479;51.902;8.212;2023-03-19T12:49:43;100826.81;;;16.31
71630;BMP280;59479;51.902;8.212;2023-03-19T12:54:52;100825.72;;;16.42
71630;BMP280;59479;51.902;8.212;2023-03-19T12:57:36;100827.50;;;16.39
71630;BMP280;59479;51.902;8.212;2023-03-19T13:00:12;100822.56;;;16.31
71630;BMP280;59479;51.902;8.212;2023-03-19T13:02:52;100822.56;;;16.31
71630;BMP280;59479;51.902;8.212;2023-03-19T13:05:29;100823.13;;;16.45
71630;BMP280;59479;51.902;8.212;2023-03-19T13:08:16;100833.25;;;16.46
71630;BMP280;59479;51.902;8.212;2023-03-19T13:10:44;100833.41;;;16.38
71630;BMP280;59479;51.902;8.212;2023-03-19T13:15:53;100828.97;;;16.50
71630;BMP280;59479;51.902;8.212;2023-03-19T13:23:48;100818.59;;;16.59
71630;BMP280;59479;51.902;8.212;2023-03-19T13:26:16;100819.25;;;16.68
71630;BMP280;59479;51.902;8.212;2023-03-19T13:29:06;100808.00;;;16.80
71630;BMP280;59479;51.902;8.212;2023-03-19T13:31:34;100812.25;;;16.78
71630;BMP280;59479;51.902;8.212;2023-03-19T13:34:19;100807.13;;;16.79
71630;BMP280;59479;51.902;8.212;2023-03-19T13:39:40;100807.19;;;16.78
71630;BMP280;59479;51.902;8.212;2023-03-19T13:42:37;100808.66;;;16.50
71630;BMP280;59479;51.902;8.212;2023-03-19T13:45:26;100807.59;;;16.60
71630;BMP280;59479;51.902;8.212;2023-03-19T13:47:56;100805.75;;;16.66
71630;BMP280;59479;51.902;8.212;2023-03-19T13:50:25;100809.81;;;16.75
71630;BMP280;59479;51.902;8.212;2023-03-19T13:53:19;100802.03;;;16.81
71630;BMP280;59479;51.902;8.212;2023-03-19T13:55:54;100806.53;;;16.70
71630;BMP280;59479;51.902;8.212;2023-03-19T13:58:25;100802.25;;;16.72
71630;BMP280;59479;51.902;8.212;2023-03-19T14:01:37;100810.69;;;16.72
71630;BMP280;59479;51.902;8.212;2023-03-19T14:04:05;100812.53;;;16.66
71630;BMP280;59479;51.902;8.212;2023-03-19T14:09:00;100806.19;;;16.84
71630;BMP280;59479;51.902;8.212;2023-03-19T14:11:32;100812.13;;;16.83
71630;BMP280;59479;51.902;8.212;2023-03-19T14:14:02;100802.06;;;16.79
71630;BMP280;59479;51.902;8.212;2023-03-19T14:16:37;100808.38;;;16.62
71630;BMP280;59479;51.902;8.212;2023-03-19T14:19:11;100806.66;;;16.64
71630;BMP280;59479;51.902;8.212;2023-03-19T14:24:26;100810.13;;;16.60
71630;BMP280;59479;51.902;8.212;2023-03-19T14:26:52;100804.81;;;16.70
71630;BMP280;59479;51.902;8.212;2023-03-19T14:29:18;100811.00;;;16.57
71630;BMP280;59479;51.902;8.212;2023-03-19T14:31:51;100813.59;;;16.56
71630;BMP280;59479;51.902;8.212;2023-03-19T14:34:25;100811.44;;;16.38
71630;BMP280;59479;51.902;8.212;2023-03-19T14:37:07;100816.50;;;16.40
71630;BMP280;59479;51.902;8.212;2023-03-19T14:39:40;100813.81;;;16.45
71630;BMP280;59479;51.902;8.212;2023-03-19T14:42:15;100811.41;;;16.40
71630;BMP280;59479;51.902;8.212;2023-03-19T14:47:39;100813.78;;;16.47
71630;BMP280;59479;51.902;8.212;2023-03-19T14:53:03;100811.44;;;16.38
71630;BMP280;59479;51.902;8.212;2023-03-19T14:55:36;100819.88;;;16.39
71630;BMP280;59479;51.902;8.212;2023-03-19T14:58:03;100818.94;;;16.42
71630;BMP280;59479;51.902;8.212;2023-03-19T15:00:45;100813.88;;;16.42
71630;BMP280;59479;51.902;8.212;2023-03-19T15:03:30;100818.13;;;16.42
71630;BMP280;59479;51.902;8.212;2023-03-19T15:05:57;100822.53;;;16.33
71630;BMP280;59479;51.902;8.212;2023-03-19T15:08:24;100821.47;;;16.42
71630;BMP280;59479;51.902;8.212;2023-03-19T15:19:08;100832.84;;;16.25
71630;BMP280;59479;51.902;8.212;2023-03-19T15:21:35;100828.53;;;16.29
71630;BMP280;59479;51.902;8.212;2023-03-19T15:24:02;100828.44;;;16.35
71630;BMP280;59479;51.902;8.212;2023-03-19T15:26:35;100825.19;;;16.28
71630;BMP280;59479;51.902;8.212;2023-03-19T15:29:01;100831.06;;;16.30
71630;BMP280;59479;51.902;8.212;2023-03-19T15:31:44;100840.25;;;16.34
71630;BMP280;59479;51.902;8.212;2023-03-19T15:34:19;100840.41;;;16.28
71630;BMP280;59479;51.902;8.212;2023-03-19T15:36:45;100844.72;;;16.23
71630;BMP280;59479;51.902;8.212;2023-03-19T15:39:14;100846.72;;;16.06
71630;BMP280;59479;51.902;8.212;2023-03-19T15:41:44;100844.34;;;15.96
71630;BMP280;59479;51.902;8.212;2023-03-19T15:44:19;100850.94;;;16.06
71630;BMP280;59479;51.902;8.212;2023-03-19T15:46:48;100858.69;;;15.98
71630;BMP280;59479;51.902;8.212;2023-03-19T15:51:43;100858.63;;;16.03
71630;BMP280;59479;51.902;8.212;2023-03-19T15:54:10;100860.53;;;15.89